sensor_id;sensor_type;location;lat;lon;timestamp;P1;durP1;ratioP1;P2;durP2;ratioP2
25854;SDS011;13680;49.936;11.344;2022-08-18T00:04:33;6.28;;;4.80;;
25854;SDS011;13680;49.936;11.344;2022-08-18T00:07:03;8.82;;;5.65;;
25854;SDS011;13680;49.936;11.344;2022-08-18T00:09:29;7.55;;;5.10;;
25854;SDS011;13680;49.936;11.344;2022-08-18T00:11:55;8.68;;;5.30;;
25854;SDS011;13680;49.936;11.344;2022-08-18T00:14:20;11.40;;;5.40;;
25854;SDS011;13680;49.936;11.344;2022-08-18T00:16:45;16.17;;;5.90;;
25854;SDS011;13680;49.936;11.344;2022-08-18T00:19:11;7.35;;;5.32;;
25854;SDS011;13680;49.936;11.344;2022-08-18T00:21:37;10.85;;;5.65;;
25854;SDS011;13680;49.936;11.344;2022-08-18T00:24:03;10.82;;;5.80;;
25854;SDS011;13680;49.936;11.344;2022-08-18T00:26:28;7.85;;;5.43;;
25854;SDS011;13680;49.936;11.344;2022-08-18T00:28:54;10.15;;;5.90;;
25854;SDS011;13680;49.936;11.344;2022-08-18T00:31:19;6.28;;;4.95;;
25854;SDS011;13680;49.936;11.344;2022-08-18T00:33:45;13.30;;;5.45;;
25854;SDS011;13680;49.936;11.344;2022-08-18T00:36:10;10.18;;;5.50;;
25854;SDS011;13680;49.936;11.344;2022-08-18T00:38:36;12.45;;;5.50;;
25854;SDS011;13680;49.936;11.344;2022-08-18T00:41:02;10.30;;;5.85;;
25854;SDS011;13680;49.936;11.344;2022-08-18T00:43:48;9.27;;;6.10;;
25854;SDS011;13680;49.936;11.344;2022-08-18T00:46:17;8.73;;;5.72;;
25854;SDS011;13680;49.936;11.344;2022-08-18T00:48:45;17.88;;;5.50;;
25854;SDS011;13680;49.936;11.344;2022-08-18T00:51:11;10.35;;;5.10;;
25854;SDS011;13680;49.936;11.344;2022-08-18T00:53:47;6.57;;;5.00;;
25854;SDS011;13680;49.936;11.344;2022-08-18T00:56:22;9.82;;;5.93;;
25854;SDS011;13680;49.936;11.344;2022-08-18T00:58:52;17.70;;;5.85;;
25854;SDS011;13680;49.936;11.344;2022-08-18T01:01:24;7.38;;;5.18;;
25854;SDS011;13680;49.936;11.344;2022-08-18T01:03:54;9.23;;;5.55;;
25854;SDS011;13680;49.936;11.344;2022-08-18T01:06:47;9.10;;;6.10;;
25854;SDS011;13680;49.936;11.344;2022-08-18T01:09:15;6.10;;;5.30;;
25854;SDS011;13680;49.936;11.344;2022-08-18T01:11:41;8.68;;;5.43;;
25854;SDS011;13680;49.936;11.344;2022-08-18T01:14:08;11.32;;;5.75;;
25854;SDS011;13680;49.936;11.344;2022-08-18T01:16:40;6.18;;;5.45;;
25854;SDS011;13680;49.936;11.344;2022-08-18T01:19:25;7.43;;;5.87;;
25854;SDS011;13680;49.936;11.344;2022-08-18T01:25:07;7.70;;;5.38;;
25854;SDS011;13680;49.936;11.344;2022-08-18T01:27:52;15.48;;;6.72;;
25854;SDS011;13680;49.936;11.344;2022-08-18T01:30:20;8.93;;;5.40;;
25854;SDS011;13680;49.936;11.344;2022-08-18T01:32:49;9.13;;;5.57;;
25854;SDS011;13680;49.936;11.344;2022-08-18T01:35:16;12.35;;;5.25;;
25854;SDS011;13680;49.936;11.344;2022-08-18T01:37:44;10.20;;;5.88;;
25854;SDS011;13680;49.936;11.344;2022-08-18T01:40:10;10.77;;;5.80;;
25854;SDS011;13680;49.936;11.344;2022-08-18T01:42:37;9.77;;;5.65;;
25854;SDS011;13680;49.936;11.344;2022-08-18T01:45:03;7.35;;;5.35;;
25854;SDS011;13680;49.936;11.344;2022-08-18T01:47:30;8.85;;;5.40;;
25854;SDS011;13680;49.936;11.344;2022-08-18T01:49:57;7.35;;;5.75;;
25854;SDS011;13680;49.936;11.344;2022-08-18T01:52:24;8.40;;;5.50;;
25854;SDS011;13680;49.936;11.344;2022-08-18T01:54:50;10.07;;;6.35;;
25854;SDS011;13680;49.936;11.344;2022-08-18T01:57:16;12.40;;;5.90;;
25854;SDS011;13680;49.936;11.344;2022-08-18T01:59:43;11.30;;;5.50;;
25854;SDS011;13680;49.936;11.344;2022-08-18T02:02:11;8.00;;;5.55;;
25854;SDS011;13680;49.936;11.344;2022-08-18T02:04:40;10.48;;;5.30;;
25854;SDS011;13680;49.936;11.344;2022-08-18T02:07:07;12.88;;;5.78;;
25854;SDS011;13680;49.936;11.344;2022-08-18T02:09:36;10.02;;;5.30;;
25854;SDS011;13680;49.936;11.344;2022-08-18T02:12:02;11.93;;;5.30;;
25854;SDS011;13680;49.936;11.344;2022-08-18T02:14:29;12.10;;;5.43;;
25854;SDS011;13680;49.936;11.344;2022-08-18T02:16:55;16.95;;;5.20;;
25854;SDS011;13680;49.936;11.344;2022-08-18T02:19:21;6.28;;;5.68;;
25854;SDS011;13680;49.936;11.344;2022-08-18T02:21:47;10.27;;;4.88;;
25854;SDS011;13680;49.936;11.344;2022-08-18T02:24:12;7.50;;;5.25;;
25854;SDS011;13680;49.936;11.344;2022-08-18T02:26:38;18.58;;;5.50;;
25854;SDS011;13680;49.936;11.344;2022-08-18T02:29:03;7.00;;;4.75;;
25854;SDS011;13680;49.936;11.344;2022-08-18T02:31:28;8.68;;;5.35;;
25854;SDS011;13680;49.936;11.344;2022-08-18T02:33:54;12.10;;;5.63;;
25854;SDS011;13680;49.936;11.344;2022-08-18T02:36:21;11.00;;;5.28;;
25854;SDS011;13680;49.936;11.344;2022-08-18T02:38:46;9.95;;;5.60;;
25854;SDS011;13680;49.936;11.344;2022-08-18T02:41:12;7.65;;;4.32;;
25854;SDS011;13680;49.936;11.344;2022-08-18T02:43:39;7.80;;;4.57;;
25854;SDS011;13680;49.936;11.344;2022-08-18T02:46:06;8.32;;;4.65;;
25854;SDS011;13680;49.936;11.344;2022-08-18T02:48:32;14.02;;;4.90;;
25854;SDS011;13680;49.936;11.344;2022-08-18T02:53:27;13.15;;;4.95;;
25854;SDS011;13680;49.936;11.344;2022-08-18T02:55:53;11.48;;;5.10;;
25854;SDS011;13680;49.936;11.344;2022-08-18T02:58:19;6.05;;;5.00;;
25854;SDS011;13680;49.936;11.344;2022-08-18T03:00:45;11.38;;;5.25;;
25854;SDS011;13680;49.936;11.344;2022-08-18T03:03:11;11.77;;;5.13;;
25854;SDS011;13680;49.936;11.344;2022-08-18T03:05:37;11.10;;;5.10;;
25854;SDS011;13680;49.936;11.344;2022-08-18T03:08:03;11.07;;;3.92;;
25854;SDS011;13680;49.936;11.344;2022-08-18T03:10:28;13.55;;;4.75;;
25854;SDS011;13680;49.936;11.344;2022-08-18T03:12:54;11.23;;;5.43;;
25854;SDS011;13680;49.936;11.344;2022-08-18T03:15:19;7.10;;;4.72;;
25854;SDS011;13680;49.936;11.344;2022-08-18T03:17:44;12.80;;;3.67;;
25854;SDS011;13680;49.936;11.344;2022-08-18T03:20:10;9.38;;;4.57;;
25854;SDS011;13680;49.936;11.344;2022-08-18T03:22:36;8.13;;;5.13;;
25854;SDS011;13680;49.936;11.344;2022-08-18T03:25:01;8.93;;;5.13;;
25854;SDS011;13680;49.936;11.344;2022-08-18T03:27:27;12.95;;;4.97;;
25854;SDS011;13680;49.936;11.344;2022-08-18T03:29:53;5.38;;;4.18;;
25854;SDS011;13680;49.936;11.344;2022-08-18T03:32:18;10.85;;;4.20;;
25854;SDS011;13680;49.936;11.344;2022-08-18T03:34:43;6.22;;;4.45;;
25854;SDS011;13680;49.936;11.344;2022-08-18T03:37:09;13.32;;;4.18;;
25854;SDS011;13680;49.936;11.344;2022-08-18T03:39:34;15.90;;;5.22;;
25854;SDS011;13680;49.936;11.344;2022-08-18T03:42:00;11.48;;;4.25;;
25854;SDS011;13680;49.936;11.344;2022-08-18T03:44:27;6.80;;;4.18;;
25854;SDS011;13680;49.936;11.344;2022-08-18T03:46:54;7.88;;;4.38;;
25854;SDS011;13680;49.936;11.344;2022-08-18T03:49:19;7.18;;;4.00;;
25854;SDS011;13680;49.936;11.344;2022-08-18T03:51:45;10.10;;;4.10;;
25854;SDS011;13680;49.936;11.344;2022-08-18T03:54:12;5.05;;;3.80;;
25854;SDS011;13680;49.936;11.344;2022-08-18T03:56:40;8.70;;;4.30;;
25854;SDS011;13680;49.936;11.344;2022-08-18T03:59:09;8.20;;;3.97;;
25854;SDS011;13680;49.936;11.344;2022-08-18T04:01:41;10.52;;;4.38;;
25854;SDS011;13680;49.936;11.344;2022-08-18T04:04:09;9.27;;;4.22;;
25854;SDS011;13680;49.936;11.344;2022-08-18T04:06:39;7.68;;;3.95;;
25854;SDS011;13680;49.936;11.344;2022-08-18T04:09:08;11.10;;;4.75;;
25854;SDS011;13680;49.936;11.344;2022-08-18T04:11:36;8.00;;;4.32;;
25854;SDS011;13680;49.936;11.344;2022-08-18T04:14:03;6.53;;;4.53;;
25854;SDS011;13680;49.936;11.344;2022-08-18T04:16:30;8.70;;;5.00;;
25854;SDS011;13680;49.936;11.344;2022-08-18T04:18:57;9.52;;;4.60;;
25854;SDS011;13680;49.936;11.344;2022-08-18T04:21:27;11.98;;;4.70;;
25854;SDS011;13680;49.936;11.344;2022-08-18T04:23:55;7.75;;;5.10;;
25854;SDS011;13680;49.936;11.344;2022-08-18T04:26:21;7.00;;;4.80;;
25854;SDS011;13680;49.936;11.344;2022-08-18T04:28:47;9.75;;;5.30;;
25854;SDS011;13680;49.936;11.344;2022-08-18T04:31:13;14.95;;;5.00;;
25854;SDS011;13680;49.936;11.344;2022-08-18T04:33:40;6.68;;;4.82;;
25854;SDS011;13680;49.936;11.344;2022-08-18T04:36:09;7.53;;;4.65;;
25854;SDS011;13680;49.936;11.344;2022-08-18T04:38:37;11.43;;;5.22;;
25854;SDS011;13680;49.936;11.344;2022-08-18T04:41:04;8.93;;;5.25;;
25854;SDS011;13680;49.936;11.344;2022-08-18T04:43:30;9.65;;;5.70;;
25854;SDS011;13680;49.936;11.344;2022-08-18T04:45:56;6.32;;;4.95;;
25854;SDS011;13680;49.936;11.344;2022-08-18T04:48:32;7.25;;;5.32;;
25854;SDS011;13680;49.936;11.344;2022-08-18T04:51:03;7.57;;;5.88;;
25854;SDS011;13680;49.936;11.344;2022-08-18T04:53:33;8.60;;;5.32;;
25854;SDS011;13680;49.936;11.344;2022-08-18T04:56:12;9.05;;;5.57;;
25854;SDS011;13680;49.936;11.344;2022-08-18T04:58:50;11.65;;;5.15;;
25854;SDS011;13680;49.936;11.344;2022-08-18T05:01:18;10.05;;;5.68;;
25854;SDS011;13680;49.936;11.344;2022-08-18T05:03:47;7.28;;;5.20;;
25854;SDS011;13680;49.936;11.344;2022-08-18T05:06:14;10.63;;;5.32;;
25854;SDS011;13680;49.936;11.344;2022-08-18T05:08:39;9.55;;;5.22;;
25854;SDS011;13680;49.936;11.344;2022-08-18T05:11:05;6.18;;;5.18;;
25854;SDS011;13680;49.936;11.344;2022-08-18T05:13:30;8.88;;;5.35;;
25854;SDS011;13680;49.936;11.344;2022-08-18T05:15:56;11.23;;;5.53;;
25854;SDS011;13680;49.936;11.344;2022-08-18T05:18:28;9.07;;;5.20;;
25854;SDS011;13680;49.936;11.344;2022-08-18T05:20:55;6.38;;;5.13;;
25854;SDS011;13680;49.936;11.344;2022-08-18T05:23:21;12.23;;;5.55;;
25854;SDS011;13680;49.936;11.344;2022-08-18T05:25:47;18.23;;;6.72;;
25854;SDS011;13680;49.936;11.344;2022-08-18T05:28:13;14.82;;;6.50;;
25854;SDS011;13680;49.936;11.344;2022-08-18T05:30:39;14.43;;;6.47;;
25854;SDS011;13680;49.936;11.344;2022-08-18T05:33:05;15.18;;;6.43;;
25854;SDS011;13680;49.936;11.344;2022-08-18T05:35:37;13.80;;;6.65;;
25854;SDS011;13680;49.936;11.344;2022-08-18T05:38:16;12.20;;;6.93;;
25854;SDS011;13680;49.936;11.344;2022-08-18T05:41:33;16.17;;;7.57;;
25854;SDS011;13680;49.936;11.344;2022-08-18T05:43:59;13.85;;;7.13;;
25854;SDS011;13680;49.936;11.344;2022-08-18T05:46:31;9.13;;;6.68;;
25854;SDS011;13680;49.936;11.344;2022-08-18T05:49:04;12.25;;;7.47;;
25854;SDS011;13680;49.936;11.344;2022-08-18T05:51:32;9.90;;;6.95;;
25854;SDS011;13680;49.936;11.344;2022-08-18T05:54:02;8.68;;;7.25;;
25854;SDS011;13680;49.936;11.344;2022-08-18T05:56:48;12.10;;;7.28;;
25854;SDS011;13680;49.936;11.344;2022-08-18T05:59:17;12.70;;;7.80;;
25854;SDS011;13680;49.936;11.344;2022-08-18T06:01:48;11.57;;;7.95;;
25854;SDS011;13680;49.936;11.344;2022-08-18T06:07:08;12.68;;;8.27;;
25854;SDS011;13680;49.936;11.344;2022-08-18T06:12:08;12.13;;;8.50;;
25854;SDS011;13680;49.936;11.344;2022-08-18T06:14:43;14.38;;;8.35;;
25854;SDS011;13680;49.936;11.344;2022-08-18T06:17:35;11.18;;;8.43;;
25854;SDS011;13680;49.936;11.344;2022-08-18T06:20:03;10.80;;;8.45;;
25854;SDS011;13680;49.936;11.344;2022-08-18T06:25:12;16.67;;;9.80;;
25854;SDS011;13680;49.936;11.344;2022-08-18T06:28:15;10.63;;;8.43;;
25854;SDS011;13680;49.936;11.344;2022-08-18T06:33:09;13.38;;;8.57;;
25854;SDS011;13680;49.936;11.344;2022-08-18T06:35:37;12.27;;;9.00;;
25854;SDS011;13680;49.936;11.344;2022-08-18T06:43:35;10.95;;;8.90;;
25854;SDS011;13680;49.936;11.344;2022-08-18T06:46:06;14.40;;;8.38;;
25854;SDS011;13680;49.936;11.344;2022-08-18T06:49:40;10.85;;;8.30;;
25854;SDS011;13680;49.936;11.344;2022-08-18T06:51:55;12.23;;;8.40;;
25854;SDS011;13680;49.936;11.344;2022-08-18T06:56:48;14.27;;;9.13;;
25854;SDS011;13680;49.936;11.344;2022-08-18T06:59:19;13.57;;;9.05;;
25854;SDS011;13680;49.936;11.344;2022-08-18T07:01:54;9.77;;;8.50;;
25854;SDS011;13680;49.936;11.344;2022-08-18T07:04:28;10.85;;;8.55;;
25854;SDS011;13680;49.936;11.344;2022-08-18T07:06:54;10.65;;;8.25;;
25854;SDS011;13680;49.936;11.344;2022-08-18T07:09:21;10.52;;;9.20;;
25854;SDS011;13680;49.936;11.344;2022-08-18T07:12:02;16.20;;;9.40;;
25854;SDS011;13680;49.936;11.344;2022-08-18T07:14:31;14.38;;;8.95;;
25854;SDS011;13680;49.936;11.344;2022-08-18T07:17:17;10.93;;;9.07;;
25854;SDS011;13680;49.936;11.344;2022-08-18T07:22:29;11.98;;;8.70;;
25854;SDS011;13680;49.936;11.344;2022-08-18T07:24:56;11.30;;;8.68;;
25854;SDS011;13680;49.936;11.344;2022-08-18T07:35:27;9.95;;;8.15;;
25854;SDS011;13680;49.936;11.344;2022-08-18T07:38:02;11.88;;;8.20;;
25854;SDS011;13680;49.936;11.344;2022-08-18T07:40:37;10.82;;;8.88;;
25854;SDS011;13680;49.936;11.344;2022-08-18T07:43:13;12.68;;;8.30;;
25854;SDS011;13680;49.936;11.344;2022-08-18T07:46:03;8.75;;;6.90;;
25854;SDS011;13680;49.936;11.344;2022-08-18T07:48:45;9.20;;;6.68;;
25854;SDS011;13680;49.936;11.344;2022-08-18T07:51:18;8.20;;;7.40;;
25854;SDS011;13680;49.936;11.344;2022-08-18T07:54:11;10.35;;;7.32;;
25854;SDS011;13680;49.936;11.344;2022-08-18T08:08:36;9.80;;;6.90;;
25854;SDS011;13680;49.936;11.344;2022-08-18T08:11:19;8.60;;;6.55;;
25854;SDS011;13680;49.936;11.344;2022-08-18T08:14:00;12.25;;;6.55;;
25854;SDS011;13680;49.936;11.344;2022-08-18T08:19:24;11.25;;;6.05;;
25854;SDS011;13680;49.936;11.344;2022-08-18T08:22:23;9.85;;;6.20;;
25854;SDS011;13680;49.936;11.344;2022-08-18T08:25:22;7.68;;;5.95;;
25854;SDS011;13680;49.936;11.344;2022-08-18T08:30:27;11.82;;;6.25;;
25854;SDS011;13680;49.936;11.344;2022-08-18T08:33:04;7.70;;;5.72;;
25854;SDS011;13680;49.936;11.344;2022-08-18T08:35:45;10.38;;;6.28;;
25854;SDS011;13680;49.936;11.344;2022-08-18T08:38:18;8.15;;;6.47;;
25854;SDS011;13680;49.936;11.344;2022-08-18T08:40:53;15.73;;;7.18;;
25854;SDS011;13680;49.936;11.344;2022-08-18T08:43:38;10.82;;;6.00;;
25854;SDS011;13680;49.936;11.344;2022-08-18T08:46:09;8.02;;;5.88;;
25854;SDS011;13680;49.936;11.344;2022-08-18T08:48:42;9.82;;;6.22;;
25854;SDS011;13680;49.936;11.344;2022-08-18T08:54:07;7.22;;;6.20;;
25854;SDS011;13680;49.936;11.344;2022-08-18T08:56:45;9.68;;;5.80;;
25854;SDS011;13680;49.936;11.344;2022-08-18T08:59:15;12.45;;;6.15;;
25854;SDS011;13680;49.936;11.344;2022-08-18T09:04:38;8.48;;;5.72;;
25854;SDS011;13680;49.936;11.344;2022-08-18T09:23:23;14.68;;;5.38;;
25854;SDS011;13680;49.936;11.344;2022-08-18T09:25:56;11.65;;;6.00;;
25854;SDS011;13680;49.936;11.344;2022-08-18T09:38:46;10.25;;;6.10;;
25854;SDS011;13680;49.936;11.344;2022-08-18T09:42:02;8.10;;;5.22;;
25854;SDS011;13680;49.936;11.344;2022-08-18T09:59:57;5.95;;;4.65;;
25854;SDS011;13680;49.936;11.344;2022-08-18T10:07:52;8.20;;;5.15;;
25854;SDS011;13680;49.936;11.344;2022-08-18T10:16:17;9.77;;;5.25;;
25854;SDS011;13680;49.936;11.344;2022-08-18T10:24:19;6.55;;;5.38;;
25854;SDS011;13680;49.936;11.344;2022-08-18T10:40:16;6.68;;;5.40;;
25854;SDS011;13680;49.936;11.344;2022-08-18T10:42:50;7.50;;;5.43;;
25854;SDS011;13680;49.936;11.344;2022-08-18T10:45:29;10.10;;;5.63;;
25854;SDS011;13680;49.936;11.344;2022-08-18T10:50:51;8.35;;;4.60;;
25854;SDS011;13680;49.936;11.344;2022-08-18T10:56:08;12.45;;;5.13;;
25854;SDS011;13680;49.936;11.344;2022-08-18T11:04:06;7.20;;;5.15;;
25854;SDS011;13680;49.936;11.344;2022-08-18T11:06:51;9.60;;;4.60;;
25854;SDS011;13680;49.936;11.344;2022-08-18T11:09:26;12.37;;;4.90;;
25854;SDS011;13680;49.936;11.344;2022-08-18T11:11:54;8.57;;;5.15;;
25854;SDS011;13680;49.936;11.344;2022-08-18T11:19:42;7.65;;;4.47;;
25854;SDS011;13680;49.936;11.344;2022-08-18T11:22:30;6.00;;;4.38;;
25854;SDS011;13680;49.936;11.344;2022-08-18T11:24:57;6.38;;;3.88;;
25854;SDS011;13680;49.936;11.344;2022-08-18T11:29:53;6.00;;;4.38;;
25854;SDS011;13680;49.936;11.344;2022-08-18T11:32:32;7.85;;;4.00;;
25854;SDS011;13680;49.936;11.344;2022-08-18T11:37:28;5.72;;;3.65;;
25854;SDS011;13680;49.936;11.344;2022-08-18T11:40:00;6.00;;;3.90;;
25854;SDS011;13680;49.936;11.344;2022-08-18T11:42:33;6.68;;;3.95;;
25854;SDS011;13680;49.936;11.344;2022-08-18T11:45:21;7.00;;;4.00;;
25854;SDS011;13680;49.936;11.344;2022-08-18T11:50:30;5.00;;;3.92;;
25854;SDS011;13680;49.936;11.344;2022-08-18T11:53:04;7.38;;;3.83;;
25854;SDS011;13680;49.936;11.344;2022-08-18T11:55:45;8.70;;;3.70;;
25854;SDS011;13680;49.936;11.344;2022-08-18T11:58:37;4.35;;;3.75;;
25854;SDS011;13680;49.936;11.344;2022-08-18T12:01:10;8.18;;;4.13;;
25854;SDS011;13680;49.936;11.344;2022-08-18T12:03:52;8.30;;;3.85;;
25854;SDS011;13680;49.936;11.344;2022-08-18T12:06:23;5.63;;;3.67;;
25854;SDS011;13680;49.936;11.344;2022-08-18T12:08:56;4.72;;;3.83;;
25854;SDS011;13680;49.936;11.344;2022-08-18T12:11:27;5.80;;;3.80;;
25854;SDS011;13680;49.936;11.344;2022-08-18T12:14:29;5.82;;;4.35;;
25854;SDS011;13680;49.936;11.344;2022-08-18T12:16:49;7.28;;;4.10;;
25854;SDS011;13680;49.936;11.344;2022-08-18T12:19:15;9.77;;;4.00;;
25854;SDS011;13680;49.936;11.344;2022-08-18T12:21:45;6.65;;;4.10;;
25854;SDS011;13680;49.936;11.344;2022-08-18T12:24:19;5.20;;;3.63;;
25854;SDS011;13680;49.936;11.344;2022-08-18T12:26:45;5.32;;;3.65;;
25854;SDS011;13680;49.936;11.344;2022-08-18T12:29:11;9.48;;;3.60;;
25854;SDS011;13680;49.936;11.344;2022-08-18T12:31:37;6.22;;;3.85;;
25854;SDS011;13680;49.936;11.344;2022-08-18T12:34:03;11.05;;;3.83;;
25854;SDS011;13680;49.936;11.344;2022-08-18T12:36:29;7.13;;;4.28;;
25854;SDS011;13680;49.936;11.344;2022-08-18T12:38:54;5.28;;;3.90;;
25854;SDS011;13680;49.936;11.344;2022-08-18T12:41:20;7.40;;;4.22;;
25854;SDS011;13680;49.936;11.344;2022-08-18T12:43:45;6.82;;;4.60;;
25854;SDS011;13680;49.936;11.344;2022-08-18T12:46:11;8.75;;;4.25;;
25854;SDS011;13680;49.936;11.344;2022-08-18T12:48:37;6.47;;;3.88;;
25854;SDS011;13680;49.936;11.344;2022-08-18T12:51:03;6.95;;;4.40;;
25854;SDS011;13680;49.936;11.344;2022-08-18T12:53:29;6.03;;;4.30;;
25854;SDS011;13680;49.936;11.344;2022-08-18T12:55:54;5.18;;;4.22;;
25854;SDS011;13680;49.936;11.344;2022-08-18T12:58:20;8.52;;;4.65;;
25854;SDS011;13680;49.936;11.344;2022-08-18T13:00:45;7.18;;;3.95;;
25854;SDS011;13680;49.936;11.344;2022-08-18T13:03:11;4.78;;;4.25;;
25854;SDS011;13680;49.936;11.344;2022-08-18T13:05:37;5.93;;;4.20;;
25854;SDS011;13680;49.936;11.344;2022-08-18T13:08:03;8.25;;;4.78;;
25854;SDS011;13680;49.936;11.344;2022-08-18T13:10:33;6.45;;;4.20;;
25854;SDS011;13680;49.936;11.344;2022-08-18T13:12:59;4.75;;;4.25;;
25854;SDS011;13680;49.936;11.344;2022-08-18T13:15:24;8.75;;;5.03;;
25854;SDS011;13680;49.936;11.344;2022-08-18T13:17:50;6.38;;;4.20;;
25854;SDS011;13680;49.936;11.344;2022-08-18T13:20:15;5.82;;;4.57;;
25854;SDS011;13680;49.936;11.344;2022-08-18T13:22:41;5.18;;;4.22;;
25854;SDS011;13680;49.936;11.344;2022-08-18T13:25:09;5.47;;;4.47;;
25854;SDS011;13680;49.936;11.344;2022-08-18T13:27:37;6.68;;;4.25;;
25854;SDS011;13680;49.936;11.344;2022-08-18T13:30:04;5.75;;;4.03;;
25854;SDS011;13680;49.936;11.344;2022-08-18T13:32:34;8.20;;;4.13;;
25854;SDS011;13680;49.936;11.344;2022-08-18T13:35:00;10.63;;;4.22;;
25854;SDS011;13680;49.936;11.344;2022-08-18T13:37:25;4.82;;;3.95;;
25854;SDS011;13680;49.936;11.344;2022-08-18T13:39:52;4.13;;;3.72;;
25854;SDS011;13680;49.936;11.344;2022-08-18T13:42:18;7.03;;;4.18;;
25854;SDS011;13680;49.936;11.344;2022-08-18T13:44:43;6.03;;;3.85;;
25854;SDS011;13680;49.936;11.344;2022-08-18T13:47:08;7.05;;;3.70;;
25854;SDS011;13680;49.936;11.344;2022-08-18T13:49:34;7.35;;;4.20;;
25854;SDS011;13680;49.936;11.344;2022-08-18T13:52:00;6.38;;;3.92;;
25854;SDS011;13680;49.936;11.344;2022-08-18T13:54:28;5.30;;;3.92;;
25854;SDS011;13680;49.936;11.344;2022-08-18T13:56:57;4.72;;;3.90;;
25854;SDS011;13680;49.936;11.344;2022-08-18T13:59:24;6.45;;;4.00;;
25854;SDS011;13680;49.936;11.344;2022-08-18T14:01:56;6.80;;;4.13;;
25854;SDS011;13680;49.936;11.344;2022-08-18T14:04:22;8.90;;;3.92;;
25854;SDS011;13680;49.936;11.344;2022-08-18T14:06:51;5.93;;;3.88;;
25854;SDS011;13680;49.936;11.344;2022-08-18T14:09:17;6.35;;;3.88;;
25854;SDS011;13680;49.936;11.344;2022-08-18T14:11:42;5.00;;;4.10;;
25854;SDS011;13680;49.936;11.344;2022-08-18T14:14:08;9.80;;;4.38;;
25854;SDS011;13680;49.936;11.344;2022-08-18T14:16:34;7.47;;;3.90;;
25854;SDS011;13680;49.936;11.344;2022-08-18T14:19:00;5.60;;;4.28;;
25854;SDS011;13680;49.936;11.344;2022-08-18T14:21:45;6.97;;;3.43;;
25854;SDS011;13680;49.936;11.344;2022-08-18T14:24:32;5.47;;;3.90;;
25854;SDS011;13680;49.936;11.344;2022-08-18T14:27:18;8.63;;;4.47;;
25854;SDS011;13680;49.936;11.344;2022-08-18T14:29:48;5.22;;;3.85;;
25854;SDS011;13680;49.936;11.344;2022-08-18T14:32:13;4.72;;;4.00;;
25854;SDS011;13680;49.936;11.344;2022-08-18T14:34:43;9.13;;;4.20;;
25854;SDS011;13680;49.936;11.344;2022-08-18T14:37:09;10.10;;;5.22;;
25854;SDS011;13680;49.936;11.344;2022-08-18T14:39:34;8.60;;;5.07;;
25854;SDS011;13680;49.936;11.344;2022-08-18T14:42:00;8.32;;;4.32;;
25854;SDS011;13680;49.936;11.344;2022-08-18T14:44:25;8.10;;;4.95;;
25854;SDS011;13680;49.936;11.344;2022-08-18T14:46:50;8.43;;;4.95;;
25854;SDS011;13680;49.936;11.344;2022-08-18T14:49:16;7.85;;;4.47;;
25854;SDS011;13680;49.936;11.344;2022-08-18T14:51:41;6.10;;;5.50;;
25854;SDS011;13680;49.936;11.344;2022-08-18T14:54:10;8.88;;;4.60;;
25854;SDS011;13680;49.936;11.344;2022-08-18T14:56:37;10.30;;;4.85;;
25854;SDS011;13680;49.936;11.344;2022-08-18T14:59:03;12.35;;;4.97;;
25854;SDS011;13680;49.936;11.344;2022-08-18T15:01:35;9.23;;;4.78;;
25854;SDS011;13680;49.936;11.344;2022-08-18T15:04:01;5.75;;;4.80;;
25854;SDS011;13680;49.936;11.344;2022-08-18T15:06:28;7.70;;;4.53;;
25854;SDS011;13680;49.936;11.344;2022-08-18T15:08:53;7.10;;;4.60;;
25854;SDS011;13680;49.936;11.344;2022-08-18T15:11:19;13.25;;;4.93;;
25854;SDS011;13680;49.936;11.344;2022-08-18T15:13:45;6.28;;;4.70;;
25854;SDS011;13680;49.936;11.344;2022-08-18T15:16:11;11.95;;;4.75;;
25854;SDS011;13680;49.936;11.344;2022-08-18T15:18:41;9.00;;;4.65;;
25854;SDS011;13680;49.936;11.344;2022-08-18T15:21:07;6.68;;;4.80;;
25854;SDS011;13680;49.936;11.344;2022-08-18T15:23:51;6.55;;;4.95;;
25854;SDS011;13680;49.936;11.344;2022-08-18T15:26:35;7.03;;;4.80;;
25854;SDS011;13680;49.936;11.344;2022-08-18T15:29:02;9.82;;;4.60;;
25854;SDS011;13680;49.936;11.344;2022-08-18T15:31:31;6.93;;;5.05;;
25854;SDS011;13680;49.936;11.344;2022-08-18T15:33:58;7.53;;;4.85;;
25854;SDS011;13680;49.936;11.344;2022-08-18T15:36:23;10.20;;;4.93;;
25854;SDS011;13680;49.936;11.344;2022-08-18T15:38:48;10.32;;;4.65;;
25854;SDS011;13680;49.936;11.344;2022-08-18T15:41:34;8.45;;;4.90;;
25854;SDS011;13680;49.936;11.344;2022-08-18T15:44:02;8.80;;;5.18;;
25854;SDS011;13680;49.936;11.344;2022-08-18T15:46:33;8.93;;;4.70;;
25854;SDS011;13680;49.936;11.344;2022-08-18T15:49:00;12.43;;;5.72;;
25854;SDS011;13680;49.936;11.344;2022-08-18T15:51:29;7.40;;;4.88;;
25854;SDS011;13680;49.936;11.344;2022-08-18T15:53:55;6.68;;;4.88;;
25854;SDS011;13680;49.936;11.344;2022-08-18T15:56:21;7.32;;;4.78;;
25854;SDS011;13680;49.936;11.344;2022-08-18T15:58:49;7.70;;;4.82;;
25854;SDS011;13680;49.936;11.344;2022-08-18T16:01:16;7.70;;;4.97;;
25854;SDS011;13680;49.936;11.344;2022-08-18T16:03:45;12.10;;;4.47;;
25854;SDS011;13680;49.936;11.344;2022-08-18T16:06:13;11.75;;;4.88;;
25854;SDS011;13680;49.936;11.344;2022-08-18T16:08:42;6.60;;;5.03;;
25854;SDS011;13680;49.936;11.344;2022-08-18T16:11:09;7.88;;;4.80;;
25854;SDS011;13680;49.936;11.344;2022-08-18T16:13:37;9.27;;;5.35;;
25854;SDS011;13680;49.936;11.344;2022-08-18T16:16:09;6.68;;;5.18;;
25854;SDS011;13680;49.936;11.344;2022-08-18T16:18:37;8.37;;;4.93;;
25854;SDS011;13680;49.936;11.344;2022-08-18T16:21:04;8.50;;;4.70;;
25854;SDS011;13680;49.936;11.344;2022-08-18T16:23:34;7.93;;;5.60;;
25854;SDS011;13680;49.936;11.344;2022-08-18T16:26:00;7.03;;;4.80;;
25854;SDS011;13680;49.936;11.344;2022-08-18T16:28:26;8.05;;;4.82;;
25854;SDS011;13680;49.936;11.344;2022-08-18T16:30:52;7.70;;;5.03;;
25854;SDS011;13680;49.936;11.344;2022-08-18T16:33:18;8.98;;;4.75;;
25854;SDS011;13680;49.936;11.344;2022-08-18T16:35:44;7.10;;;4.95;;
25854;SDS011;13680;49.936;11.344;2022-08-18T16:38:11;8.55;;;5.45;;
25854;SDS011;13680;49.936;11.344;2022-08-18T16:40:37;10.43;;;5.80;;
25854;SDS011;13680;49.936;11.344;2022-08-18T16:43:05;6.80;;;5.38;;
25854;SDS011;13680;49.936;11.344;2022-08-18T16:45:31;8.05;;;5.72;;
25854;SDS011;13680;49.936;11.344;2022-08-18T16:47:58;8.48;;;5.75;;
25854;SDS011;13680;49.936;11.344;2022-08-18T16:50:24;13.45;;;5.50;;
25854;SDS011;13680;49.936;11.344;2022-08-18T16:52:49;10.27;;;6.22;;
25854;SDS011;13680;49.936;11.344;2022-08-18T16:55:15;7.93;;;5.95;;
25854;SDS011;13680;49.936;11.344;2022-08-18T16:57:41;9.13;;;6.22;;
25854;SDS011;13680;49.936;11.344;2022-08-18T17:00:26;9.60;;;6.05;;
25854;SDS011;13680;49.936;11.344;2022-08-18T17:03:11;6.57;;;5.63;;
25854;SDS011;13680;49.936;11.344;2022-08-18T17:05:59;9.45;;;5.40;;
25854;SDS011;13680;49.936;11.344;2022-08-18T17:08:30;8.20;;;5.55;;
25854;SDS011;13680;49.936;11.344;2022-08-18T17:10:58;8.75;;;5.53;;
25854;SDS011;13680;49.936;11.344;2022-08-18T17:13:31;7.82;;;5.88;;
25854;SDS011;13680;49.936;11.344;2022-08-18T17:15:56;8.35;;;5.80;;
25854;SDS011;13680;49.936;11.344;2022-08-18T17:18:22;11.85;;;6.53;;
25854;SDS011;13680;49.936;11.344;2022-08-18T17:20:48;8.90;;;6.25;;
25854;SDS011;13680;49.936;11.344;2022-08-18T17:23:15;11.07;;;6.18;;
25854;SDS011;13680;49.936;11.344;2022-08-18T17:25:41;10.70;;;6.03;;